sensor_id;sensor_type;location;lat;lon;timestamp;P1;durP1;ratioP1;P2;durP2;ratioP2
68680;SDS011;55836;49.858;6.756;2023-01-05T00:01:38;0.93;;;0.80;;
68680;SDS011;55836;49.858;6.756;2023-01-05T00:04:04;2.40;;;0.80;;
68680;SDS011;55836;49.858;6.756;2023-01-05T00:06:30;2.03;;;0.80;;
68680;SDS011;55836;49.858;6.756;2023-01-05T00:08:57;0.60;;;0.60;;
68680;SDS011;55836;49.858;6.756;2023-01-05T00:11:23;0.67;;;0.67;;
68680;SDS011;55836;49.858;6.756;2023-01-05T00:14:12;0.87;;;0.60;;
68680;SDS011;55836;49.858;6.756;2023-01-05T00:16:57;0.53;;;0.53;;
68680;SDS011;55836;49.858;6.756;2023-01-05T00:19:42;1.70;;;0.60;;
68680;SDS011;55836;49.858;6.756;2023-01-05T00:22:27;0.87;;;0.70;;
68680;SDS011;55836;49.858;6.756;2023-01-05T00:25:11;1.60;;;0.70;;
68680;SDS011;55836;49.858;6.756;2023-01-05T00:27:38;2.13;;;0.87;;
68680;SDS011;55836;49.858;6.756;2023-01-05T00:30:04;4.13;;;0.80;;
68680;SDS011;55836;49.858;6.756;2023-01-05T00:32:31;2.30;;;0.77;;
68680;SDS011;55836;49.858;6.756;2023-01-05T00:34:57;0.83;;;0.70;;
68680;SDS011;55836;49.858;6.756;2023-01-05T00:37:24;2.57;;;0.73;;
68680;SDS011;55836;49.858;6.756;2023-01-05T00:39:50;3.30;;;1.00;;
68680;SDS011;55836;49.858;6.756;2023-01-05T00:42:17;1.63;;;0.97;;
68680;SDS011;55836;49.858;6.756;2023-01-05T00:44:43;0.70;;;0.60;;
68680;SDS011;55836;49.858;6.756;2023-01-05T00:47:10;1.30;;;0.73;;
68680;SDS011;55836;49.858;6.756;2023-01-05T00:49:36;4.37;;;1.00;;
68680;SDS011;55836;49.858;6.756;2023-01-05T00:52:02;1.20;;;0.70;;
68680;SDS011;55836;49.858;6.756;2023-01-05T00:54:28;1.67;;;0.97;;
68680;SDS011;55836;49.858;6.756;2023-01-05T00:56:54;4.40;;;1.03;;
68680;SDS011;55836;49.858;6.756;2023-01-05T00:59:21;4.53;;;0.90;;
68680;SDS011;55836;49.858;6.756;2023-01-05T01:01:47;4.90;;;1.30;;
68680;SDS011;55836;49.858;6.756;2023-01-05T01:04:14;4.97;;;1.20;;
68680;SDS011;55836;49.858;6.756;2023-01-05T01:06:40;3.27;;;1.37;;
68680;SDS011;55836;49.858;6.756;2023-01-05T01:09:06;5.33;;;1.20;;
68680;SDS011;55836;49.858;6.756;2023-01-05T01:11:32;4.63;;;1.40;;
68680;SDS011;55836;49.858;6.756;2023-01-05T01:13:58;7.73;;;1.47;;
68680;SDS011;55836;49.858;6.756;2023-01-05T01:16:24;8.83;;;1.70;;
68680;SDS011;55836;49.858;6.756;2023-01-05T01:18:50;8.87;;;2.07;;
68680;SDS011;55836;49.858;6.756;2023-01-05T01:21:16;10.80;;;1.93;;
68680;SDS011;55836;49.858;6.756;2023-01-05T01:23:43;14.20;;;2.73;;
68680;SDS011;55836;49.858;6.756;2023-01-05T01:26:10;7.10;;;1.50;;
68680;SDS011;55836;49.858;6.756;2023-01-05T01:28:36;14.00;;;3.10;;
68680;SDS011;55836;49.858;6.756;2023-01-05T01:31:03;8.00;;;1.90;;
68680;SDS011;55836;49.858;6.756;2023-01-05T01:33:29;9.30;;;2.00;;
68680;SDS011;55836;49.858;6.756;2023-01-05T01:35:55;6.90;;;2.00;;
68680;SDS011;55836;49.858;6.756;2023-01-05T01:38:21;9.37;;;2.03;;
68680;SDS011;55836;49.858;6.756;2023-01-05T01:40:47;7.40;;;2.07;;
68680;SDS011;55836;49.858;6.756;2023-01-05T01:43:15;13.73;;;3.07;;
68680;SDS011;55836;49.858;6.756;2023-01-05T01:45:41;12.73;;;2.30;;
68680;SDS011;55836;49.858;6.756;2023-01-05T01:48:11;13.07;;;2.57;;
68680;SDS011;55836;49.858;6.756;2023-01-05T01:50:43;9.70;;;2.43;;
68680;SDS011;55836;49.858;6.756;2023-01-05T01:53:11;12.33;;;2.60;;
68680;SDS011;55836;49.858;6.756;2023-01-05T01:55:40;10.00;;;2.40;;
68680;SDS011;55836;49.858;6.756;2023-01-05T01:58:07;12.13;;;2.60;;
68680;SDS011;55836;49.858;6.756;2023-01-05T02:00:36;17.20;;;4.03;;
68680;SDS011;55836;49.858;6.756;2023-01-05T02:03:02;9.93;;;2.37;;
68680;SDS011;55836;49.858;6.756;2023-01-05T02:05:30;13.03;;;2.90;;
68680;SDS011;55836;49.858;6.756;2023-01-05T02:07:56;8.77;;;2.63;;
68680;SDS011;55836;49.858;6.756;2023-01-05T02:18:26;10.83;;;3.03;;
68680;SDS011;55836;49.858;6.756;2023-01-05T02:23:34;13.67;;;3.27;;
68680;SDS011;55836;49.858;6.756;2023-01-05T02:36:13;11.07;;;2.83;;
68680;SDS011;55836;49.858;6.756;2023-01-05T02:41:12;15.60;;;2.70;;
68680;SDS011;55836;49.858;6.756;2023-01-05T02:43:38;15.03;;;3.87;;
68680;SDS011;55836;49.858;6.756;2023-01-05T02:46:07;14.03;;;3.53;;
68680;SDS011;55836;49.858;6.756;2023-01-05T02:48:33;15.73;;;2.97;;
68680;SDS011;55836;49.858;6.756;2023-01-05T02:51:00;19.80;;;3.97;;
68680;SDS011;55836;49.858;6.756;2023-01-05T02:53:30;15.57;;;3.47;;
68680;SDS011;55836;49.858;6.756;2023-01-05T02:56:02;12.13;;;3.27;;
68680;SDS011;55836;49.858;6.756;2023-01-05T02:58:33;22.30;;;3.90;;
68680;SDS011;55836;49.858;6.756;2023-01-05T03:01:02;27.03;;;3.50;;
68680;SDS011;55836;49.858;6.756;2023-01-05T03:03:32;23.40;;;3.93;;
68680;SDS011;55836;49.858;6.756;2023-01-05T03:06:01;18.80;;;3.80;;
68680;SDS011;55836;49.858;6.756;2023-01-05T03:08:29;15.57;;;3.27;;
68680;SDS011;55836;49.858;6.756;2023-01-05T03:10:58;16.53;;;3.27;;
68680;SDS011;55836;49.858;6.756;2023-01-05T03:13:44;13.27;;;2.97;;
68680;SDS011;55836;49.858;6.756;2023-01-05T03:16:18;17.67;;;3.13;;
68680;SDS011;55836;49.858;6.756;2023-01-05T03:18:46;18.73;;;3.60;;
68680;SDS011;55836;49.858;6.756;2023-01-05T03:21:32;18.70;;;3.67;;
68680;SDS011;55836;49.858;6.756;2023-01-05T03:24:17;16.37;;;3.70;;
68680;SDS011;55836;49.858;6.756;2023-01-05T03:27:02;15.93;;;3.30;;
68680;SDS011;55836;49.858;6.756;2023-01-05T03:29:48;13.23;;;3.40;;
68680;SDS011;55836;49.858;6.756;2023-01-05T03:32:32;19.90;;;3.80;;
68680;SDS011;55836;49.858;6.756;2023-01-05T03:35:19;15.40;;;3.20;;
68680;SDS011;55836;49.858;6.756;2023-01-05T03:40:41;16.47;;;3.00;;
68680;SDS011;55836;49.858;6.756;2023-01-05T03:43:08;13.70;;;3.40;;
68680;SDS011;55836;49.858;6.756;2023-01-05T03:45:38;9.17;;;2.77;;
68680;SDS011;55836;49.858;6.756;2023-01-05T03:48:05;10.10;;;2.60;;
68680;SDS011;55836;49.858;6.756;2023-01-05T03:50:32;12.33;;;2.70;;
68680;SDS011;55836;49.858;6.756;2023-01-05T03:52:58;14.60;;;2.63;;
68680;SDS011;55836;49.858;6.756;2023-01-05T03:55:24;11.40;;;3.23;;
68680;SDS011;55836;49.858;6.756;2023-01-05T03:57:50;14.00;;;2.80;;
68680;SDS011;55836;49.858;6.756;2023-01-05T04:00:16;18.07;;;3.13;;
68680;SDS011;55836;49.858;6.756;2023-01-05T04:02:42;17.70;;;3.63;;
68680;SDS011;55836;49.858;6.756;2023-01-05T04:05:08;25.40;;;4.13;;
68680;SDS011;55836;49.858;6.756;2023-01-05T04:07:34;18.07;;;3.07;;
68680;SDS011;55836;49.858;6.756;2023-01-05T04:10:00;16.20;;;3.20;;
68680;SDS011;55836;49.858;6.756;2023-01-05T04:12:26;17.97;;;4.13;;
68680;SDS011;55836;49.858;6.756;2023-01-05T04:14:52;13.53;;;3.30;;
68680;SDS011;55836;49.858;6.756;2023-01-05T04:17:18;20.63;;;3.37;;
68680;SDS011;55836;49.858;6.756;2023-01-05T04:19:44;18.87;;;3.67;;
68680;SDS011;55836;49.858;6.756;2023-01-05T04:22:10;18.00;;;3.67;;
68680;SDS011;55836;49.858;6.756;2023-01-05T04:24:36;21.27;;;3.30;;
68680;SDS011;55836;49.858;6.756;2023-01-05T04:27:02;15.33;;;3.40;;
68680;SDS011;55836;49.858;6.756;2023-01-05T04:29:28;16.53;;;2.97;;
68680;SDS011;55836;49.858;6.756;2023-01-05T04:31:54;18.27;;;3.20;;
68680;SDS011;55836;49.858;6.756;2023-01-05T04:34:20;18.70;;;3.70;;
68680;SDS011;55836;49.858;6.756;2023-01-05T04:36:46;10.77;;;3.37;;
68680;SDS011;55836;49.858;6.756;2023-01-05T04:39:13;19.77;;;3.17;;
68680;SDS011;55836;49.858;6.756;2023-01-05T04:41:39;18.77;;;4.43;;
68680;SDS011;55836;49.858;6.756;2023-01-05T04:44:06;13.70;;;3.33;;
68680;SDS011;55836;49.858;6.756;2023-01-05T04:46:32;15.47;;;3.40;;
68680;SDS011;55836;49.858;6.756;2023-01-05T04:48:58;19.77;;;4.87;;
68680;SDS011;55836;49.858;6.756;2023-01-05T04:51:24;13.60;;;3.67;;
68680;SDS011;55836;49.858;6.756;2023-01-05T04:53:50;20.63;;;3.80;;
68680;SDS011;55836;49.858;6.756;2023-01-05T04:56:16;12.97;;;3.10;;
68680;SDS011;55836;49.858;6.756;2023-01-05T04:58:42;14.93;;;3.03;;
68680;SDS011;55836;49.858;6.756;2023-01-05T05:01:08;18.63;;;3.17;;
68680;SDS011;55836;49.858;6.756;2023-01-05T05:03:34;15.63;;;3.40;;
68680;SDS011;55836;49.858;6.756;2023-01-05T05:06:00;18.17;;;3.23;;
68680;SDS011;55836;49.858;6.756;2023-01-05T05:08:26;21.43;;;3.27;;
68680;SDS011;55836;49.858;6.756;2023-01-05T05:10:52;18.77;;;3.77;;
68680;SDS011;55836;49.858;6.756;2023-01-05T05:13:18;12.17;;;2.90;;
68680;SDS011;55836;49.858;6.756;2023-01-05T05:15:44;27.03;;;4.37;;
68680;SDS011;55836;49.858;6.756;2023-01-05T05:18:10;18.97;;;4.20;;
68680;SDS011;55836;49.858;6.756;2023-01-05T05:20:37;16.93;;;3.07;;
68680;SDS011;55836;49.858;6.756;2023-01-05T05:23:04;24.27;;;5.27;;
68680;SDS011;55836;49.858;6.756;2023-01-05T05:25:30;17.73;;;4.37;;
68680;SDS011;55836;49.858;6.756;2023-01-05T05:27:56;12.20;;;3.00;;
68680;SDS011;55836;49.858;6.756;2023-01-05T05:30:22;15.63;;;3.47;;
68680;SDS011;55836;49.858;6.756;2023-01-05T05:32:48;15.50;;;3.40;;
68680;SDS011;55836;49.858;6.756;2023-01-05T05:35:14;16.97;;;3.50;;
68680;SDS011;55836;49.858;6.756;2023-01-05T05:37:40;16.97;;;3.67;;
68680;SDS011;55836;49.858;6.756;2023-01-05T05:40:06;20.27;;;3.40;;
68680;SDS011;55836;49.858;6.756;2023-01-05T05:42:32;16.57;;;4.03;;
68680;SDS011;55836;49.858;6.756;2023-01-05T05:44:58;13.70;;;3.27;;
68680;SDS011;55836;49.858;6.756;2023-01-05T05:47:24;15.40;;;3.37;;
68680;SDS011;55836;49.858;6.756;2023-01-05T05:49:50;15.50;;;3.33;;
68680;SDS011;55836;49.858;6.756;2023-01-05T05:52:17;9.10;;;2.93;;
68680;SDS011;55836;49.858;6.756;2023-01-05T05:54:43;18.97;;;3.37;;
68680;SDS011;55836;49.858;6.756;2023-01-05T05:57:08;16.27;;;3.33;;
68680;SDS011;55836;49.858;6.756;2023-01-05T05:59:35;20.47;;;3.30;;
68680;SDS011;55836;49.858;6.756;2023-01-05T06:02:01;14.17;;;3.23;;
68680;SDS011;55836;49.858;6.756;2023-01-05T06:04:27;18.63;;;4.47;;
68680;SDS011;55836;49.858;6.756;2023-01-05T06:06:53;10.73;;;2.97;;
68680;SDS011;55836;49.858;6.756;2023-01-05T06:09:19;16.27;;;3.10;;
68680;SDS011;55836;49.858;6.756;2023-01-05T06:11:45;10.83;;;3.10;;
68680;SDS011;55836;49.858;6.756;2023-01-05T06:14:11;19.63;;;3.90;;
68680;SDS011;55836;49.858;6.756;2023-01-05T06:16:37;22.03;;;4.20;;
68680;SDS011;55836;49.858;6.756;2023-01-05T06:19:03;17.37;;;5.27;;
68680;SDS011;55836;49.858;6.756;2023-01-05T06:21:29;15.80;;;3.23;;
68680;SDS011;55836;49.858;6.756;2023-01-05T06:23:55;14.77;;;3.83;;
68680;SDS011;55836;49.858;6.756;2023-01-05T06:26:21;16.63;;;4.10;;
68680;SDS011;55836;49.858;6.756;2023-01-05T06:28:47;15.53;;;3.90;;
68680;SDS011;55836;49.858;6.756;2023-01-05T06:31:13;12.77;;;2.97;;
68680;SDS011;55836;49.858;6.756;2023-01-05T06:33:39;17.30;;;3.70;;
68680;SDS011;55836;49.858;6.756;2023-01-05T06:36:05;16.77;;;3.67;;
68680;SDS011;55836;49.858;6.756;2023-01-05T06:38:31;13.50;;;2.67;;
68680;SDS011;55836;49.858;6.756;2023-01-05T06:40:57;16.57;;;4.20;;
68680;SDS011;55836;49.858;6.756;2023-01-05T06:43:23;18.23;;;3.47;;
68680;SDS011;55836;49.858;6.756;2023-01-05T06:45:49;20.97;;;5.17;;
68680;SDS011;55836;49.858;6.756;2023-01-05T06:48:16;19.57;;;3.73;;
68680;SDS011;55836;49.858;6.756;2023-01-05T06:50:42;19.17;;;4.77;;
68680;SDS011;55836;49.858;6.756;2023-01-05T06:53:08;14.60;;;3.60;;
68680;SDS011;55836;49.858;6.756;2023-01-05T06:55:34;14.63;;;3.40;;
68680;SDS011;55836;49.858;6.756;2023-01-05T06:58:00;12.27;;;3.63;;
68680;SDS011;55836;49.858;6.756;2023-01-05T07:00:27;20.43;;;3.63;;
68680;SDS011;55836;49.858;6.756;2023-01-05T07:02:53;17.37;;;4.13;;
68680;SDS011;55836;49.858;6.756;2023-01-05T07:05:19;17.43;;;4.77;;
68680;SDS011;55836;49.858;6.756;2023-01-05T07:07:47;17.53;;;3.73;;
68680;SDS011;55836;49.858;6.756;2023-01-05T07:10:13;21.33;;;5.70;;
68680;SDS011;55836;49.858;6.756;2023-01-05T07:12:39;18.63;;;3.03;;
68680;SDS011;55836;49.858;6.756;2023-01-05T07:15:05;13.97;;;3.60;;
68680;SDS011;55836;49.858;6.756;2023-01-05T07:17:31;12.63;;;2.80;;
68680;SDS011;55836;49.858;6.756;2023-01-05T07:19:58;17.07;;;3.10;;
68680;SDS011;55836;49.858;6.756;2023-01-05T07:22:24;16.23;;;3.77;;
68680;SDS011;55836;49.858;6.756;2023-01-05T07:24:52;14.30;;;3.10;;
68680;SDS011;55836;49.858;6.756;2023-01-05T07:27:18;16.70;;;5.00;;
68680;SDS011;55836;49.858;6.756;2023-01-05T07:29:44;19.73;;;5.03;;
68680;SDS011;55836;49.858;6.756;2023-01-05T07:32:10;8.63;;;2.77;;
68680;SDS011;55836;49.858;6.756;2023-01-05T07:34:36;13.90;;;3.40;;
68680;SDS011;55836;49.858;6.756;2023-01-05T07:37:02;13.57;;;3.30;;
68680;SDS011;55836;49.858;6.756;2023-01-05T07:39:28;9.83;;;3.20;;
68680;SDS011;55836;49.858;6.756;2023-01-05T07:41:54;14.97;;;3.17;;
68680;SDS011;55836;49.858;6.756;2023-01-05T07:44:20;16.13;;;3.30;;
68680;SDS011;55836;49.858;6.756;2023-01-05T07:46:46;21.00;;;3.50;;
68680;SDS011;55836;49.858;6.756;2023-01-05T07:49:12;14.93;;;3.07;;
68680;SDS011;55836;49.858;6.756;2023-01-05T07:51:39;13.30;;;3.33;;
68680;SDS011;55836;49.858;6.756;2023-01-05T07:54:05;14.87;;;2.97;;
68680;SDS011;55836;49.858;6.756;2023-01-05T07:56:31;17.67;;;3.17;;
68680;SDS011;55836;49.858;6.756;2023-01-05T07:58:58;15.93;;;3.63;;
68680;SDS011;55836;49.858;6.756;2023-01-05T08:01:24;15.47;;;3.20;;
68680;SDS011;55836;49.858;6.756;2023-01-05T08:03:50;15.47;;;3.57;;
68680;SDS011;55836;49.858;6.756;2023-01-05T08:06:16;19.60;;;4.53;;
68680;SDS011;55836;49.858;6.756;2023-01-05T08:08:43;25.40;;;4.73;;
68680;SDS011;55836;49.858;6.756;2023-01-05T08:11:10;13.40;;;3.30;;
68680;SDS011;55836;49.858;6.756;2023-01-05T08:13:39;17.47;;;3.40;;
68680;SDS011;55836;49.858;6.756;2023-01-05T08:16:23;13.13;;;3.17;;
68680;SDS011;55836;49.858;6.756;2023-01-05T08:18:49;14.90;;;4.33;;
68680;SDS011;55836;49.858;6.756;2023-01-05T08:21:15;24.03;;;6.20;;
68680;SDS011;55836;49.858;6.756;2023-01-05T08:23:41;20.37;;;4.23;;
68680;SDS011;55836;49.858;6.756;2023-01-05T08:26:11;17.17;;;3.80;;
68680;SDS011;55836;49.858;6.756;2023-01-05T08:28:37;21.67;;;3.87;;
68680;SDS011;55836;49.858;6.756;2023-01-05T08:31:04;17.20;;;3.47;;
68680;SDS011;55836;49.858;6.756;2023-01-05T08:33:31;17.27;;;3.73;;
68680;SDS011;55836;49.858;6.756;2023-01-05T08:35:57;23.20;;;4.07;;
68680;SDS011;55836;49.858;6.756;2023-01-05T08:38:23;25.20;;;3.87;;
68680;SDS011;55836;49.858;6.756;2023-01-05T08:40:49;28.60;;;5.40;;
68680;SDS011;55836;49.858;6.756;2023-01-05T08:43:15;20.20;;;3.90;;
68680;SDS011;55836;49.858;6.756;2023-01-05T08:45:41;18.33;;;4.13;;
68680;SDS011;55836;49.858;6.756;2023-01-05T08:48:07;17.70;;;4.30;;
68680;SDS011;55836;49.858;6.756;2023-01-05T08:50:34;22.90;;;4.73;;
68680;SDS011;55836;49.858;6.756;2023-01-05T08:53:02;15.30;;;3.40;;
68680;SDS011;55836;49.858;6.756;2023-01-05T08:55:28;22.03;;;3.70;;
68680;SDS011;55836;49.858;6.756;2023-01-05T08:57:54;14.70;;;3.90;;
68680;SDS011;55836;49.858;6.756;2023-01-05T09:00:21;23.10;;;4.37;;
68680;SDS011;55836;49.858;6.756;2023-01-05T09:02:47;19.20;;;4.33;;
68680;SDS011;55836;49.858;6.756;2023-01-05T09:05:13;20.53;;;4.07;;
68680;SDS011;55836;49.858;6.756;2023-01-05T09:07:39;20.00;;;4.40;;
68680;SDS011;55836;49.858;6.756;2023-01-05T09:10:06;17.77;;;4.00;;
68680;SDS011;55836;49.858;6.756;2023-01-05T09:12:36;22.67;;;3.57;;
68680;SDS011;55836;49.858;6.756;2023-01-05T09:15:02;22.60;;;4.23;;
68680;SDS011;55836;49.858;6.756;2023-01-05T09:17:28;17.17;;;4.20;;
68680;SDS011;55836;49.858;6.756;2023-01-05T09:19:54;21.03;;;3.73;;
68680;SDS011;55836;49.858;6.756;2023-01-05T09:22:20;16.53;;;4.40;;
68680;SDS011;55836;49.858;6.756;2023-01-05T09:24:46;15.83;;;3.43;;
68680;SDS011;55836;49.858;6.756;2023-01-05T09:27:12;16.77;;;4.47;;
68680;SDS011;55836;49.858;6.756;2023-01-05T09:29:38;14.90;;;3.97;;
68680;SDS011;55836;49.858;6.756;2023-01-05T09:32:04;19.23;;;4.50;;
68680;SDS011;55836;49.858;6.756;2023-01-05T09:34:31;17.03;;;4.40;;
68680;SDS011;55836;49.858;6.756;2023-01-05T09:36:57;27.80;;;6.20;;
68680;SDS011;55836;49.858;6.756;2023-01-05T09:39:24;18.93;;;5.40;;
68680;SDS011;55836;49.858;6.756;2023-01-05T09:41:53;21.83;;;4.63;;
68680;SDS011;55836;49.858;6.756;2023-01-05T09:44:36;14.50;;;4.17;;
68680;SDS011;55836;49.858;6.756;2023-01-05T09:47:17;19.77;;;4.80;;
68680;SDS011;55836;49.858;6.756;2023-01-05T09:49:46;20.33;;;5.47;;
68680;SDS011;55836;49.858;6.756;2023-01-05T09:52:13;19.20;;;4.97;;
68680;SDS011;55836;49.858;6.756;2023-01-05T09:54:39;25.47;;;4.60;;
68680;SDS011;55836;49.858;6.756;2023-01-05T09:57:06;19.43;;;5.73;;
68680;SDS011;55836;49.858;6.756;2023-01-05T09:59:35;15.07;;;3.80;;
68680;SDS011;55836;49.858;6.756;2023-01-05T10:02:12;20.53;;;3.73;;
68680;SDS011;55836;49.858;6.756;2023-01-05T10:04:39;23.77;;;5.77;;
68680;SDS011;55836;49.858;6.756;2023-01-05T10:07:06;18.07;;;4.87;;
68680;SDS011;55836;49.858;6.756;2023-01-05T10:09:36;17.97;;;4.70;;
68680;SDS011;55836;49.858;6.756;2023-01-05T10:15:00;13.27;;;4.47;;
68680;SDS011;55836;49.858;6.756;2023-01-05T10:17:28;17.97;;;4.20;;
68680;SDS011;55836;49.858;6.756;2023-01-05T10:19:57;23.83;;;4.87;;
68680;SDS011;55836;49.858;6.756;2023-01-05T10:27:26;13.37;;;4.33;;
68680;SDS011;55836;49.858;6.756;2023-01-05T10:30:02;20.50;;;4.30;;
68680;SDS011;55836;49.858;6.756;2023-01-05T10:32:43;22.47;;;4.70;;
68680;SDS011;55836;49.858;6.756;2023-01-05T10:35:24;12.13;;;4.60;;
68680;SDS011;55836;49.858;6.756;2023-01-05T10:42:52;25.17;;;4.50;;
68680;SDS011;55836;49.858;6.756;2023-01-05T10:45:19;15.90;;;4.90;;
68680;SDS011;55836;49.858;6.756;2023-01-05T10:47:46;17.90;;;4.27;;
68680;SDS011;55836;49.858;6.756;2023-01-05T10:52:58;24.97;;;4.50;;
68680;SDS011;55836;49.858;6.756;2023-01-05T10:55:26;20.40;;;4.20;;
68680;SDS011;55836;49.858;6.756;2023-01-05T10:57:53;19.00;;;4.00;;
68680;SDS011;55836;49.858;6.756;2023-01-05T11:00:19;17.40;;;4.93;;
68680;SDS011;55836;49.858;6.756;2023-01-05T11:05:34;23.47;;;4.73;;
68680;SDS011;55836;49.858;6.756;2023-01-05T11:08:02;17.70;;;5.30;;
68680;SDS011;55836;49.858;6.756;2023-01-05T11:10:30;19.17;;;4.13;;
68680;SDS011;55836;49.858;6.756;2023-01-05T11:13:00;22.60;;;4.40;;
68680;SDS011;55836;49.858;6.756;2023-01-05T11:15:27;24.97;;;7.67;;
68680;SDS011;55836;49.858;6.756;2023-01-05T11:17:53;16.93;;;5.60;;
68680;SDS011;55836;49.858;6.756;2023-01-05T11:20:20;20.70;;;4.40;;
68680;SDS011;55836;49.858;6.756;2023-01-05T11:22:46;23.17;;;4.67;;
68680;SDS011;55836;49.858;6.756;2023-01-05T11:27:45;23.67;;;5.63;;
68680;SDS011;55836;49.858;6.756;2023-01-05T11:32:38;13.93;;;4.07;;
68680;SDS011;55836;49.858;6.756;2023-01-05T11:35:12;19.73;;;5.13;;
68680;SDS011;55836;49.858;6.756;2023-01-05T11:37:42;23.83;;;5.13;;
68680;SDS011;55836;49.858;6.756;2023-01-05T11:40:13;21.00;;;5.17;;
68680;SDS011;55836;49.858;6.756;2023-01-05T11:42:40;23.07;;;5.87;;
68680;SDS011;55836;49.858;6.756;2023-01-05T11:45:18;21.57;;;5.23;;
68680;SDS011;55836;49.858;6.756;2023-01-05T11:47:46;14.73;;;4.27;;
68680;SDS011;55836;49.858;6.756;2023-01-05T11:52:40;17.20;;;4.67;;
68680;SDS011;55836;49.858;6.756;2023-01-05T11:57:46;21.47;;;5.40;;
68680;SDS011;55836;49.858;6.756;2023-01-05T12:00:49;20.73;;;5.77;;
68680;SDS011;55836;49.858;6.756;2023-01-05T12:05:45;22.27;;;5.00;;
68680;SDS011;55836;49.858;6.756;2023-01-05T12:08:14;22.43;;;5.63;;
68680;SDS011;55836;49.858;6.756;2023-01-05T12:15:41;17.23;;;4.27;;
68680;SDS011;55836;49.858;6.756;2023-01-05T12:33:36;13.33;;;4.23;;
68680;SDS011;55836;49.858;6.756;2023-01-05T12:46:20;17.93;;;6.17;;
68680;SDS011;55836;49.858;6.756;2023-01-05T12:48:57;20.27;;;5.20;;
68680;SDS011;55836;49.858;6.756;2023-01-05T12:51:29;24.47;;;8.30;;
68680;SDS011;55836;49.858;6.756;2023-01-05T12:54:01;17.50;;;6.03;;
68680;SDS011;55836;49.858;6.756;2023-01-05T12:56:32;16.93;;;5.30;;
68680;SDS011;55836;49.858;6.756;2023-01-05T13:01:35;23.63;;;4.63;;
68680;SDS011;55836;49.858;6.756;2023-01-05T13:04:04;18.53;;;4.43;;
68680;SDS011;55836;49.858;6.756;2023-01-05T13:06:36;19.37;;;4.27;;
68680;SDS011;55836;49.858;6.756;2023-01-05T13:09:11;18.47;;;4.40;;
68680;SDS011;55836;49.858;6.756;2023-01-05T13:11:45;14.20;;;4.93;;
68680;SDS011;55836;49.858;6.756;2023-01-05T13:14:17;13.37;;;4.37;;
68680;SDS011;55836;49.858;6.756;2023-01-05T13:16:46;19.97;;;4.90;;
68680;SDS011;55836;49.858;6.756;2023-01-05T13:21:58;20.93;;;4.43;;
68680;SDS011;55836;49.858;6.756;2023-01-05T13:27:11;29.33;;;11.07;;
68680;SDS011;55836;49.858;6.756;2023-01-05T13:29:40;18.93;;;7.00;;
68680;SDS011;55836;49.858;6.756;2023-01-05T13:42:14;17.63;;;4.40;;
68680;SDS011;55836;49.858;6.756;2023-01-05T13:50:22;23.40;;;6.60;;
68680;SDS011;55836;49.858;6.756;2023-01-05T13:55:16;17.37;;;5.27;;
68680;SDS011;55836;49.858;6.756;2023-01-05T13:57:43;17.90;;;3.67;;
68680;SDS011;55836;49.858;6.756;2023-01-05T14:03:14;21.20;;;5.60;;
68680;SDS011;55836;49.858;6.756;2023-01-05T14:05:47;21.93;;;4.53;;
68680;SDS011;55836;49.858;6.756;2023-01-05T14:08:24;19.80;;;6.10;;
68680;SDS011;55836;49.858;6.756;2023-01-05T14:13:55;16.67;;;5.07;;
68680;SDS011;55836;49.858;6.756;2023-01-05T14:24:30;23.40;;;6.00;;
68680;SDS011;55836;49.858;6.756;2023-01-05T14:34:49;23.37;;;5.30;;
68680;SDS011;55836;49.858;6.756;2023-01-05T14:37:24;22.97;;;4.63;;
68680;SDS011;55836;49.858;6.756;2023-01-05T14:39:51;12.20;;;4.70;;
68680;SDS011;55836;49.858;6.756;2023-01-05T14:47:30;19.77;;;5.17;;
68680;SDS011;55836;49.858;6.756;2023-01-05T14:49:57;25.83;;;11.27;;
68680;SDS011;55836;49.858;6.756;2023-01-05T14:55:17;17.20;;;4.90;;
68680;SDS011;55836;49.858;6.756;2023-01-05T14:57:47;16.97;;;5.00;;
68680;SDS011;55836;49.858;6.756;2023-01-05T15:00:56;17.07;;;4.60;;
68680;SDS011;55836;49.858;6.756;2023-01-05T15:03:17;16.67;;;5.40;;
68680;SDS011;55836;49.858;6.756;2023-01-05T15:05:51;14.00;;;5.60;;
68680;SDS011;55836;49.858;6.756;2023-01-05T15:08:21;17.50;;;5.13;;
68680;SDS011;55836;49.858;6.756;2023-01-05T15:15:44;20.53;;;5.50;;
68680;SDS011;55836;49.858;6.756;2023-01-05T15:20:48;20.77;;;5.07;;
68680;SDS011;55836;49.858;6.756;2023-01-05T15:36:35;20.03;;;4.53;;
68680;SDS011;55836;49.858;6.756;2023-01-05T15:39:20;17.90;;;4.77;;
68680;SDS011;55836;49.858;6.756;2023-01-05T15:41:46;19.57;;;4.60;;
68680;SDS011;55836;49.858;6.756;2023-01-05T15:44:14;22.10;;;4.40;;
68680;SDS011;55836;49.858;6.756;2023-01-05T15:46:43;17.23;;;4.93;;
68680;SDS011;55836;49.858;6.756;2023-01-05T15:49:16;17.23;;;3.60;;
68680;SDS011;55836;49.858;6.756;2023-01-05T15:51:48;15.87;;;4.80;;
68680;SDS011;55836;49.858;6.756;2023-01-05T15:54:18;21.37;;;4.77;;
68680;SDS011;55836;49.858;6.756;2023-01-05T15:56:45;14.70;;;3.97;;
68680;SDS011;55836;49.858;6.756;2023-01-05T15:59:21;13.23;;;3.27;;
68680;SDS011;55836;49.858;6.756;2023-01-05T16:01:48;17.47;;;4.67;;
68680;SDS011;55836;49.858;6.756;2023-01-05T16:04:14;18.43;;;4.23;;
68680;SDS011;55836;49.858;6.756;2023-01-05T16:06:42;21.63;;;4.43;;
68680;SDS011;55836;49.858;6.756;2023-01-05T16:09:10;16.67;;;4.13;;
68680;SDS011;55836;49.858;6.756;2023-01-05T16:11:42;18.97;;;4.80;;
68680;SDS011;55836;49.858;6.756;2023-01-05T16:14:14;18.50;;;4.53;;
68680;SDS011;55836;49.858;6.756;2023-01-05T16:16:53;20.23;;;4.37;;
68680;SDS011;55836;49.858;6.756;2023-01-05T16:22:27;19.43;;;4.93;;
68680;SDS011;55836;49.858;6.756;2023-01-05T16:27:21;22.47;;;6.03;;
68680;SDS011;55836;49.858;6.756;2023-01-05T16:29:47;22.87;;;7.10;;
68680;SDS011;55836;49.858;6.756;2023-01-05T16:38:09;14.17;;;5.63;;
68680;SDS011;55836;49.858;6.756;2023-01-05T16:40:39;23.30;;;5.77;;
68680;SDS011;55836;49.858;6.756;2023-01-05T16:43:40;19.40;;;6.13;;
68680;SDS011;55836;49.858;6.756;2023-01-05T16:48:44;13.60;;;6.07;;
68680;SDS011;55836;49.858;6.756;2023-01-05T16:51:12;10.70;;;5.53;;
68680;SDS011;55836;49.858;6.756;2023-01-05T16:53:42;17.83;;;7.33;;
68680;SDS011;55836;49.858;6.756;2023-01-05T17:01:51;18.13;;;6.53;;
68680;SDS011;55836;49.858;6.756;2023-01-05T17:04:17;19.53;;;8.60;;
68680;SDS011;55836;49.858;6.756;2023-01-05T17:06:44;19.87;;;8.57;;
68680;SDS011;55836;49.858;6.756;2023-01-05T17:09:24;18.53;;;7.43;;
68680;SDS011;55836;49.858;6.756;2023-01-05T17:11:51;19.10;;;6.97;;
68680;SDS011;55836;49.858;6.756;2023-01-05T17:14:17;25.20;;;7.17;;
68680;SDS011;55836;49.858;6.756;2023-01-05T17:16:44;23.67;;;9.20;;
68680;SDS011;55836;49.858;6.756;2023-01-05T17:19:14;22.00;;;8.30;;
68680;SDS011;55836;49.858;6.756;2023-01-05T17:21:45;18.37;;;8.27;;
68680;SDS011;55836;49.858;6.756;2023-01-05T17:24:13;16.00;;;7.93;;
68680;SDS011;55836;49.858;6.756;2023-01-05T17:26:41;21.23;;;5.57;;
68680;SDS011;55836;49.858;6.756;2023-01-05T17:29:09;18.03;;;6.20;;
68680;SDS011;55836;49.858;6.756;2023-01-05T17:31:39;17.80;;;8.40;;
68680;SDS011;55836;49.858;6.756;2023-01-05T17:34:05;20.03;;;7.03;;
68680;SDS011;55836;49.858;6.756;2023-01-05T17:36:31;17.10;;;6.00;;
68680;SDS011;55836;49.858;6.756;2023-01-05T17:38:57;14.13;;;5.27;;
68680;SDS011;55836;49.858;6.756;2023-01-05T17:41:23;10.23;;;5.63;;
68680;SDS011;55836;49.858;6.756;2023-01-05T17:43:49;16.03;;;5.73;;
68680;SDS011;55836;49.858;6.756;2023-01-05T17:46:16;21.37;;;9.80;;
68680;SDS011;55836;49.858;6.756;2023-01-05T17:48:42;17.07;;;8.87;;